GW0389 Weather Reports


Display with metric or nautical units.
time (UTC)temp
F
wind
direction
speed
MPH
gust
MPH
rain 1hr
in
rain 24hr
in
rain mn
in
humidity
%
barometer
mb
20220529081319 72 295 0.0 0.0 0.00 0.00 0.00 98 1013.3
20220529080818 71 295 0.0 0.0 0.00 0.00 0.00 98 1013.5
20220529080317 72 295 0.0 0.0 0.00 0.00 0.00 97 1013.2
20220529075815 72 295 0.0 0.0 0.00 0.00 0.00 97 1013.4
20220529075313 72 295 0.0 0.0 0.00 0.00 0.00 97 1013.4
20220529074813 72 295 0.0 0.0 0.00 0.00 0.00 97 1013.3
20220529074312 72 295 0.0 0.0 0.00 0.00 0.00 97 1013.6
20220529073808 72 295 0.0 0.0 0.00 0.00 0.00 97 1013.7
20220529073307 72 295 0.0 0.0 0.00 0.00 0.00 97 1013.9
20220529072805 72 295 0.0 0.0 0.00 0.00 0.00 97 1013.7
20220529072304 72 295 0.0 0.0 0.00 0.00 0.00 97 1013.6
20220529071803 72 295 0.0 0.0 0.00 0.00 0.00 97 1013.4
20220529071302 72 295 0.0 0.0 0.00 0.00 0.00 96 1013.5
20220529070800 72 295 0.0 0.0 0.00 0.00 0.00 96 1013.6
20220529070300 72 295 0.0 0.0 0.00 0.00 0.00 96 1013.7
20220529065759 72 295 0.0 0.0 0.00 0.00 0.00 96 1013.8
20220529065257 73 295 0.0 0.0 0.00 0.00 0.00 96 1013.7
20220529064755 72 295 0.0 0.0 0.00 0.00 0.00 95 1013.9
20220529064254 72 295 0.0 0.0 0.00 0.00 0.00 95 1014.0
20220529063753 73 295 0.0 0.0 0.00 0.00 0.00 95 1013.8
20220529063251 73 295 0.0 0.0 0.00 0.00 0.00 94 1013.6
20220529062750 73 295 0.0 0.0 0.00 0.00 0.00 94 1013.9
20220529062248 73 295 0.0 0.0 0.00 0.00 0.00 94 1013.9
20220529061748 73 295 0.0 1.0 0.00 0.00 0.00 94 1013.9
20220529061244 73 295 0.0 0.0 0.00 0.00 0.00 94 1013.9
20220529060742 73 295 0.0 0.0 0.00 0.00 0.00 93 1013.8
20220529060241 73 295 0.0 1.0 0.00 0.00 0.00 94 1013.7
20220529055741 73 295 0.0 0.0 0.00 0.00 0.00 93 1013.8
20220529055239 74 295 0.0 0.0 0.00 0.00 0.00 93 1013.8
20220529054737 74 295 1.0 1.0 0.00 0.00 0.00 93 1013.8
20220529054236 74 295 1.0 2.0 0.00 0.00 0.00 93 1014.0
20220529053736 73 299 2.0 2.0 0.00 0.00 0.00 94 1014.1
20220529053235 73 302 0.0 0.0 0.00 0.00 0.00 95 1013.9
20220529052733 73 301 1.0 1.0 0.00 0.00 0.00 96 1013.6
20220529052231 74 293 0.0 1.0 0.00 0.00 0.00 97 1014.1
20220529051729 73 293 0.0 0.0 0.00 0.00 0.00 97 1014.1
20220529051227 74 293 1.0 1.0 0.00 0.00 0.00 98 1013.8
20220529050727 74 293 0.0 0.0 0.00 0.00 0.00 98 1013.8
20220529050224 74 293 0.0 0.0 0.00 0.00 0.00 98 1014.0
20220529045724 74 293 0.0 0.0 0.00 0.00 0.00 98 1013.9
20220529045223 74 293 0.0 0.0 0.00 0.00 0.00 98 1013.9
20220529044721 74 293 0.0 1.0 0.00 0.00 0.00 98 1013.8
20220529044218 74 293 1.0 1.0 0.00 0.00 0.00 98 1013.7
20220529043717 74 302 0.0 0.0 0.00 0.00 0.00 98 1013.5
20220529043215 74 302 0.0 0.0 0.00 0.00 0.00 98 1013.8
20220529042715 74 302 0.0 0.0 0.00 0.00 0.00 98 1013.8
20220529042213 74 302 0.0 0.0 0.00 0.00 0.00 98 1013.7
20220529041712 74 302 2.0 2.0 0.00 0.00 0.00 98 1013.9
20220529041211 73 340 0.0 0.0 0.00 0.00 0.00 98 1013.7
20220529040711 73 340 0.0 0.0 0.00 0.00 0.00 98 1013.9
20220529040210 74 340 0.0 0.0 0.00 0.00 0.00 98 1013.9
20220529035708 74 340 0.0 0.0 0.00 0.33 0.33 98 1014.2
20220529035205 74 340 0.0 0.0 0.00 0.33 0.33 98 1014.0
20220529034704 74 340 0.0 0.0 0.00 0.33 0.33 97 1014.1
20220529034203 74 340 0.0 0.0 0.00 0.33 0.33 98 1014.0
20220529033701 74 304 0.0 0.0 0.00 0.33 0.33 97 1014.2
20220529033201 74 305 0.0 0.0 0.00 0.33 0.33 97 1014.2
20220529032701 74 303 1.0 2.0 0.00 0.33 0.33 97 1014.4
20220529032159 74 29 0.0 0.0 0.00 0.33 0.33 98 1014.2
20220529031657 74 29 0.0 0.0 0.00 0.33 0.33 97 1014.4
20220529031156 74 29 0.0 0.0 0.00 0.33 0.33 97 1014.4
20220529030654 74 29 0.0 0.0 0.00 0.33 0.33 97 1014.4
20220529030154 74 29 0.0 0.0 0.00 0.33 0.33 97 1014.3
20220529025653 74 29 0.0 0.0 0.00 0.33 0.33 97 1014.3
20220529025152 74 29 0.0 0.0 0.00 0.33 0.33 97 1013.9
20220529024651 74 29 0.0 0.0 0.00 0.33 0.33 96 1014.1
20220529024149 74 30 1.0 1.0 0.00 0.33 0.33 96 1014.0
20220529023648 74 282 0.0 0.0 0.00 0.33 0.33 96 1014.1
20220529023146 74 281 0.0 1.0 0.00 0.33 0.33 96 1013.9
20220529022642 74 282 1.0 1.0 0.00 0.33 0.33 96 1014.1
20220529022141 74 289 3.0 3.0 0.00 0.33 0.33 97 1014.0
20220529021640 74 290 0.0 0.0 0.00 0.33 0.33 96 1013.9
20220529021139 74 290 0.0 0.0 0.00 0.33 0.33 95 1014.0
20220529020637 74 290 0.0 0.0 0.00 0.33 0.33 95 1013.8
20220529020137 74 290 0.0 0.0 0.00 0.33 0.33 95 1013.9
20220529015635 74 290 1.0 1.0 0.00 0.33 0.33 94 1013.5
20220529015134 73 289 1.0 1.0 0.00 0.33 0.33 94 1013.6
20220529014631 73 290 0.0 0.0 0.00 0.33 0.33 94 1013.7
20220529014131 73 282 1.0 1.0 0.00 0.33 0.33 95 1013.9
20220529013629 73 282 0.0 1.0 0.00 0.33 0.33 95 1013.7
20220529013128 74 282 0.0 0.0 0.00 0.33 0.33 95 1013.9
20220529012627 74 288 2.0 2.0 0.00 0.33 0.33 96 1013.7
20220529012126 74 270 0.0 1.0 0.00 0.33 0.33 96 1013.6
20220529011625 74 295 2.0 2.0 0.00 0.33 0.33 98 1013.8
20220529011123 74 286 2.0 2.0 0.00 0.33 0.33 98 1013.7
20220529010622 74 288 1.0 1.0 0.00 0.33 0.33 98 1013.5
20220529010121 74 276 0.0 1.0 0.00 0.33 0.33 98 1013.4
20220529005619 73 275 1.0 1.0 0.00 0.33 0.33 98 1013.4
20220529005118 73 275 1.0 1.0 0.00 0.33 0.33 98 1013.6
20220529004615 73 275 0.0 0.0 0.00 0.33 0.33 98 1013.6
20220529004114 73 275 0.0 0.0 0.00 0.33 0.33 98 1013.5
20220529003614 73 275 0.0 0.0 0.00 0.33 0.33 98 1013.5
20220529003114 73 275 1.0 2.0 0.00 0.33 0.33 98 1013.8
20220529002612 73 275 0.0 1.0 0.00 0.33 0.33 98 1013.5
20220529002111 73 285 0.0 1.0 0.00 0.33 0.33 98 1013.4
20220529001609 73 291 0.0 0.0 0.00 0.33 0.33 98 1013.3
20220529001109 72 291 1.0 2.0 0.00 0.33 0.33 99 1013.4
20220529000608 73 291 1.0 1.0 0.00 0.33 0.33 98 1013.3
20220529000108 73 294 0.0 0.0 0.00 0.33 0.33 98 1013.2
20220528235607 73 286 4.0 5.0 0.00 0.33 0.33 98 1013.3
20220528235106 72 22 0.0 0.0 0.00 0.33 0.33 98 1013.0
20220528234605 72 22 0.0 0.0 0.00 0.33 0.33 98 1012.8
20220528234104 72 22 0.0 1.0 0.00 0.33 0.33 98 1012.3
20220528233602 72 19 0.0 0.0 0.00 0.33 0.33 98 1012.4
20220528233101 72 5 1.0 2.0 0.00 0.33 0.33 97 1012.5
20220528232601 72 355 0.0 1.0 0.00 0.33 0.33 98 1012.6
20220528232100 72 355 0.0 0.0 0.00 0.33 0.33 97 1012.4
20220528231600 72 5 0.0 0.0 0.07 0.33 0.33 97 1012.7
20220528231059 71 77 1.0 1.0 0.11 0.33 0.33 97 1012.8
20220528230559 70 11 0.0 1.0 0.23 0.32 0.32 97 1012.5
20220528230058 70 337 0.0 0.0 0.54 0.31 0.31 97 1012.3
20220528225556 70 257 8.0 9.0 0.78 0.28 0.28 96 1012.5
20220528225055 70 282 10.0 11.0 0.78 0.22 0.22 96 1013.2
20220528224553 70 253 9.0 10.0 0.40 0.15 0.15 95 1013.2
20220528224052 70 265 10.0 11.0 0.11 0.09 0.09 95 1013.9
20220528223550 71 262 11.0 14.0 0.30 0.09 0.09 96 1013.8
20220528223049 72 263 12.0 15.0 0.35 0.07 0.07 95 1013.9
20220528222549 72 271 15.0 17.0 0.23 0.04 0.04 94 1013.7
20220528222048 74 277 9.0 13.0 0.11 0.02 0.02 93 1013.6
20220528221546 75 260 12.0 13.0 0.04 0.00 0.00 89 1013.4
20220528221045 76 317 6.0 11.0 0.00 0.00 0.00 86 1013.6
20220528220543 84 253 13.0 17.0 0.00 0.00 0.00 73 1012.9
20220528220042 85 16 0.0 1.0 0.00 0.00 0.00 71 1012.5
20220528215540 85 52 2.0 2.0 0.00 0.00 0.00 70 1012.7
20220528215039 85 20 1.0 1.0 0.00 0.00 0.00 69 1012.8
20220528214538 85 29 2.0 2.0 0.00 0.00 0.00 68 1012.3
20220528214036 85 58 2.0 2.0 0.00 0.00 0.00 67 1012.4
20220528213535 86 314 1.0 1.0 0.00 0.00 0.00 67 1012.4
20220528213035 86 359 0.0 1.0 0.00 0.00 0.00 67 1011.8
20220528212534 86 43 4.0 5.0 0.00 0.00 0.00 65 1011.1
20220528212032 88 31 2.0 2.0 0.00 0.00 0.00 64 1011.0
20220528211532 87 132 3.0 6.0 0.00 0.00 0.00 64 1011.0
20220528211031 87 56 2.0 3.0 0.00 0.00 0.00 63 1011.1
20220528210528 88 78 3.0 3.0 0.00 0.00 0.00 62 1011.3
20220528210028 90 91 5.0 6.0 0.00 0.00 0.00 61 1011.7
20220528205527 89 68 3.0 3.0 0.00 0.00 0.00 61 1012.1
20220528205027 89 86 1.0 5.0 0.00 0.00 0.00 61 1012.1
20220528204527 89 15 3.0 5.0 0.00 0.00 0.00 61 1012.3
20220528204025 90 112 4.0 5.0 0.00 0.00 0.00 60 1012.3
20220528203523 89 47 2.0 3.0 0.00 0.00 0.00 62 1012.3
20220528203023 89 54 3.0 3.0 0.00 0.00 0.00 59 1012.2
20220528202523 90 74 5.0 9.0 0.00 0.00 0.00 60 1012.3
20220528202021 89 45 1.0 2.0 0.00 0.00 0.00 61 1012.4
20220528201520 89 79 2.0 3.0 0.00 0.00 0.00 61 1011.9
20220528201018 90 86 5.0 6.0 0.00 0.00 0.00 59 1011.8
20220528200518 89 75 2.0 3.0 0.00 0.00 0.00 60 1012.1
20220528200017 90 40 6.0 8.0 0.00 0.00 0.00 58 1011.9
20220528195516 90 83 4.0 6.0 0.00 0.00 0.00 58 1011.9
20220528195013 89 85 3.0 5.0 0.00 0.00 0.00 60 1012.2
20220528194511 90 36 3.0 5.0 0.00 0.00 0.00 59 1012.5
20220528194009 91 36 5.0 6.0 0.00 0.00 0.00 60 1012.4
20220528193509 90 66 3.0 3.0 0.00 0.00 0.00 58 1012.2
20220528193008 90 128 3.0 7.0 0.00 0.00 0.00 58 1012.5
20220528192006 90 88 7.0 8.0 0.00 0.00 0.00 57 1012.8
20220528191504 91 53 6.0 9.0 0.00 0.00 0.00 58 1012.6
20220528191004 90 152 4.0 6.0 0.00 0.00 0.00 56 1012.8
20220528190502 90 128 5.0 6.0 0.00 0.00 0.00 56 1012.8
20220528190002 91 76 4.0 6.0 0.00 0.00 0.00 55 1013.0
20220528185502 90 77 4.0 5.0 0.00 0.00 0.00 56 1012.9
20220528185001 91 80 3.0 3.0 0.00 0.00 0.00 56 1012.9
20220528184500 91 86 3.0 3.0 0.00 0.00 0.00 57 1013.2
20220528183958 91 153 4.0 5.0 0.00 0.00 0.00 54 1013.2
20220528183456 89 76 3.0 3.0 0.00 0.00 0.00 58 1013.1
20220528182954 90 63 5.0 7.0 0.00 0.00 0.00 58 1013.1
20220528182453 90 81 3.0 3.0 0.00 0.00 0.00 57 1013.3
20220528181952 90 21 4.0 6.0 0.00 0.00 0.00 58 1013.3
20220528181450 88 14 3.0 3.0 0.00 0.00 0.00 60 1013.4
20220528180948 90 59 5.0 7.0 0.00 0.00 0.00 58 1013.4
20220528180447 88 40 3.0 3.0 0.00 0.00 0.00 61 1013.3
20220528175947 88 54 3.0 5.0 0.00 0.00 0.00 62 1013.5
20220528175445 88 29 2.0 2.0 0.00 0.00 0.00 61 1013.6
20220528174944 89 88 3.0 5.0 0.00 0.00 0.00 61 1013.8
20220528174442 89 80 1.0 2.0 0.00 0.00 0.00 61 1013.7
20220528173941 89 74 4.0 5.0 0.00 0.00 0.00 60 1013.7
20220528173440 88 39 1.0 2.0 0.00 0.00 0.00 61 1013.7
20220528172938 90 316 1.0 1.0 0.00 0.00 0.00 57 1013.8
20220528172437 89 18 1.0 2.0 0.00 0.00 0.00 58 1013.6
20220528171935 88 20 1.0 1.0 0.00 0.00 0.00 62 1013.7
20220528171434 88 21 1.0 1.0 0.00 0.00 0.00 60 1013.6
20220528170932 89 281 3.0 3.0 0.00 0.00 0.00 62 1013.9
20220528170430 91 34 1.0 1.0 0.00 0.00 0.00 52 1013.7
20220528165930 89 339 1.0 1.0 0.00 0.00 0.00 52 1014.0
20220528165428 90 283 3.0 3.0 0.00 0.00 0.00 53 1013.9
20220528164928 89 346 1.0 1.0 0.00 0.00 0.00 53 1014.0
20220528164427 90 256 5.0 6.0 0.00 0.00 0.00 53 1014.3
20220528163926 90 298 2.0 2.0 0.00 0.00 0.00 54 1014.2
20220528163425 90 295 1.0 1.0 0.00 0.00 0.00 53 1014.1
20220528162923 89 307 1.0 1.0 0.00 0.00 0.00 55 1014.2
20220528162422 87 305 2.0 2.0 0.00 0.00 0.00 59 1014.3
20220528161920 89 241 6.0 7.0 0.00 0.00 0.00 56 1014.4
20220528161419 89 10 1.0 2.0 0.00 0.00 0.00 51 1014.4
20220528160919 87 275 2.0 2.0 0.00 0.00 0.00 59 1014.3
20220528160418 88 272 5.0 6.0 0.00 0.00 0.00 58 1014.3
20220528155917 88 302 2.0 2.0 0.00 0.00 0.00 59 1014.5
20220528155415 88 321 1.0 1.0 0.00 0.00 0.00 55 1014.5
20220528154914 90 298 1.0 2.0 0.00 0.00 0.00 54 1014.3
20220528154413 89 329 0.0 1.0 0.00 0.00 0.00 57 1014.5
20220528153913 87 280 3.0 3.0 0.00 0.00 0.00 59 1014.4
20220528153413 87 267 4.0 5.0 0.00 0.00 0.00 59 1014.6
20220528152912 87 286 1.0 1.0 0.00 0.00 0.00 61 1014.5
20220528152411 87 18 2.0 2.0 0.00 0.00 0.00 58 1014.5
20220528151909 88 263 3.0 3.0 0.00 0.00 0.00 59 1014.6
20220528151408 87 279 3.0 3.0 0.00 0.00 0.00 60 1014.6
20220528150908 87 284 4.0 5.0 0.00 0.00 0.00 60 1014.8
20220528150407 87 278 2.0 3.0 0.00 0.00 0.00 61 1014.4
20220528145906 85 315 2.0 2.0 0.00 0.00 0.00 61 1014.6
20220528145405 86 22 1.0 1.0 0.00 0.00 0.00 61 1014.4
20220528144904 86 320 1.0 2.0 0.00 0.00 0.00 63 1014.6
20220528144402 86 281 3.0 3.0 0.00 0.00 0.00 58 1014.7
20220528143901 87 258 3.0 5.0 0.00 0.00 0.00 60 1014.6
20220528143400 85 288 6.0 7.0 0.00 0.00 0.00 64 1014.6
20220528142859 86 266 5.0 6.0 0.00 0.00 0.00 64 1014.5
20220528142358 87 295 1.0 2.0 0.00 0.00 0.00 64 1014.4
20220528141857 86 301 0.0 0.0 0.00 0.00 0.00 63 1014.5
20220528141355 84 297 2.0 2.0 0.00 0.00 0.00 67 1014.4
20220528140854 84 276 5.0 6.0 0.00 0.00 0.00 65 1014.6
20220528140353 85 286 1.0 2.0 0.00 0.00 0.00 65 1014.6
20220528135851 84 306 1.0 2.0 0.00 0.00 0.00 68 1014.6
20220528135351 83 0 1.0 1.0 0.00 0.00 0.00 71 1014.8
20220528134850 84 284 3.0 3.0 0.00 0.00 0.00 72 1014.6
20220528134348 83 299 0.0 1.0 0.00 0.00 0.00 71 1014.8
20220528133846 83 264 3.0 5.0 0.00 0.00 0.00 71 1014.8
20220528133345 83 282 2.0 3.0 0.00 0.00 0.00 73 1015.0
20220528132843 82 240 5.0 6.0 0.00 0.00 0.00 72 1015.0
20220528132342 83 293 3.0 5.0 0.00 0.00 0.00 74 1014.9
20220528131841 83 287 2.0 2.0 0.00 0.00 0.00 72 1015.1
20220528131340 83 301 0.0 0.0 0.00 0.00 0.00 73 1015.0
20220528130839 83 289 1.0 1.0 0.00 0.00 0.00 74 1015.0
20220528130338 82 292 0.0 1.0 0.00 0.00 0.00 75 1015.0
20220528125836 82 270 3.0 3.0 0.00 0.00 0.00 75 1014.9
20220528125335 81 298 0.0 0.0 0.00 0.00 0.00 80 1014.8
20220528124834 82 279 3.0 3.0 0.00 0.00 0.00 78 1014.9
20220528124332 82 323 2.0 3.0 0.00 0.00 0.00 79 1014.8
20220528123831 81 280 1.0 1.0 0.00 0.00 0.00 80 1014.9
20220528123330 81 295 2.0 3.0 0.00 0.00 0.00 80 1015.1
20220528122828 81 298 0.0 0.0 0.00 0.00 0.00 80 1015.0
20220528122327 82 293 0.0 1.0 0.00 0.00 0.00 78 1015.0
20220528121826 81 293 0.0 1.0 0.00 0.00 0.00 82 1014.7
20220528121325 80 293 1.0 2.0 0.00 0.00 0.00 82 1014.5
20220528120823 80 293 0.0 0.0 0.00 0.00 0.00 83 1014.4
20220528120322 79 294 0.0 0.0 0.00 0.00 0.00 84 1014.7
20220528115820 79 294 0.0 0.0 0.00 0.00 0.00 85 1014.6
20220528115319 79 294 1.0 1.0 0.00 0.00 0.00 85 1014.6
20220528114818 79 294 0.0 0.0 0.00 0.00 0.00 85 1014.5
20220528114318 79 294 0.0 0.0 0.00 0.00 0.00 86 1014.5
20220528113816 78 295 0.0 0.0 0.00 0.00 0.00 88 1014.5
20220528113316 77 294 0.0 0.0 0.00 0.00 0.00 91 1014.5
20220528112815 76 295 0.0 0.0 0.00 0.00 0.00 92 1014.3
20220528112314 75 295 0.0 0.0 0.00 0.00 0.00 92 1014.3
20220528111813 75 295 0.0 0.0 0.00 0.00 0.00 92 1014.3
20220528111311 75 295 0.0 0.0 0.00 0.00 0.00 93 1014.2
20220528110810 75 295 0.0 0.0 0.00 0.00 0.00 93 1014.2
20220528110309 75 295 0.0 0.0 0.00 0.00 0.00 93 1014.3
20220528105807 75 295 0.0 0.0 0.00 0.00 0.00 93 1014.1
20220528105307 75 295 0.0 0.0 0.00 0.00 0.00 92 1014.2
20220528104807 76 295 0.0 0.0 0.00 0.00 0.00 92 1014.2
20220528104307 75 295 1.0 1.0 0.00 0.00 0.00 92 1014.0
20220528103807 75 295 0.0 0.0 0.00 0.00 0.00 92 1014.0
20220528103306 75 295 0.0 0.0 0.00 0.00 0.00 91 1014.1
20220528102805 76 295 0.0 0.0 0.00 0.00 0.00 91 1014.0
20220528102303 76 295 0.0 0.0 0.00 0.00 0.00 90 1013.7
20220528101802 76 295 0.0 0.0 0.00 0.00 0.00 90 1013.5
20220528101300 76 295 0.0 0.0 0.00 0.00 0.00 90 1013.6
20220528100758 76 295 0.0 0.0 0.00 0.00 0.00 90 1013.5
20220528100256 76 295 1.0 1.0 0.00 0.00 0.00 90 1013.5
20220528095755 76 295 0.0 0.0 0.00 0.00 0.00 90 1013.2
20220528095254 76 295 0.0 0.0 0.00 0.00 0.00 89 1013.2
20220528094753 76 295 0.0 0.0 0.00 0.00 0.00 89 1013.4
20220528094252 76 295 0.0 0.0 0.00 0.00 0.00 89 1013.3
20220528093751 77 295 0.0 0.0 0.00 0.00 0.00 89 1013.3
20220528093250 77 295 0.0 0.0 0.00 0.00 0.00 89 1013.3
20220528092747 77 285 2.0 2.0 0.00 0.00 0.00 89 1013.3
20220528092246 76 299 0.0 0.0 0.00 0.00 0.00 89 1013.2
20220528091745 77 299 0.0 1.0 0.00 0.00 0.00 89 1013.5
20220528091244 77 299 1.0 1.0 0.00 0.00 0.00 90 1013.6
20220528090744 76 299 0.0 0.0 0.00 0.00 0.00 90 1013.4
20220528090243 76 299 0.0 0.0 0.00 0.00 0.00 91 1013.6
20220528085742 76 299 0.0 0.0 0.00 0.00 0.00 90 1013.6
20220528085241 76 299 0.0 0.0 0.00 0.00 0.00 89 1013.7
20220528084740 77 299 0.0 0.0 0.00 0.00 0.00 88 1013.5
20220528084239 77 299 0.0 0.0 0.00 0.00 0.00 88 1013.5
20220528083737 77 299 1.0 1.0 0.00 0.00 0.00 88 1013.8
20220528083235 77 299 1.0 1.0 0.00 0.00 0.00 88 1013.6
20220528082735 77 299 1.0 1.0 0.00 0.00 0.00 88 1013.5
20220528082234 77 299 0.0 0.0 0.00 0.00 0.00 88 1013.5
20220528081732 77 299 0.0 0.0 0.00 0.00 0.00 89 1013.4